PGRO/ROP METAR and TAF weather

Enter ICAO airport designator
Station Type Date Time Source
PGRO METAR 2023/02/06 07:50 UTC NOAA

PGRO 060750Z 07010KT 7SM BKN017 26/24 A2981 RMK LAST


Station Type Date Time Source
PGRO Decoded METAR 2023/02/06 07:50 UTC NOAA

Rota Island, N. Mariana Is, Rota International Airport, GU, United States (PGRO) 14-11N 145-15E
Feb 06, 2023 - 02:50 AM EST / 2023.02.06 0750 UTC
Wind: from the ENE (070 degrees) at 12 MPH (10 KT):0
Visibility: 7 mile(s):0
Sky conditions: mostly cloudy
Temperature: 78 F (26 C)
Dew Point: 75 F (24 C)
Relative Humidity: 88%
Pressure (altimeter): 29.81 in. Hg (1009 hPa)
ob: PGRO 060750Z 07010KT 7SM BKN017 26/24 A2981 RMK LAST
cycle: 8

Station Type Date Time Source
PGRO TAF 2023/02/06 06:52 UTC NOAA

TAF PGRO 060550Z 0606/0706 06012G24KT P6SM VCSH SCT015 SCT040

Example: see airport list